Time;durP1;ratioP1;P1;durP2;ratioP2;P2;SDS_P1;SDS_P2;PMS_P1;PMS_P2;Temp;Humidity;BMP_temperature;BMP_pressure;BME280_temperature;BME280_humidity;BME280_pressure;Samples;Min_cycle;Max_cycle;Signal;HPM_P1;HPM_P2
2022/11/24 00:01:09;;;;;;;11.20;3.38;;;;;;;8.25;100.00;96899.19;6248940;22;20046;-80
2022/11/24 00:03:36;;;;;;;10.05;2.45;;;;;;;8.08;100.00;96902.56;6249118;22;20008;-79
2022/11/24 00:06:07;;;;;;;10.63;2.42;;;;;;;8.15;100.00;96911.06;6275903;22;20012;-79
2022/11/24 00:08:34;;;;;;;9.15;2.40;;;;;;;8.07;100.00;96908.81;6248564;22;20426;-79
2022/11/24 00:11:11;;;;;;;7.95;2.50;;;;;;;7.82;100.00;96915.09;6275817;22;20019;-80
2022/11/24 00:13:40;;;;;;;18.88;2.70;;;;;;;7.85;100.00;96909.41;6275824;22;20062;-79
2022/11/24 00:16:13;;;;;;;12.80;2.53;;;;;;;7.89;100.00;96928.03;6276132;22;20422;-80
2022/11/24 00:18:40;;;;;;;12.93;2.40;;;;;;;8.03;100.00;96918.13;6248976;22;20019;-81
2022/11/24 00:21:06;;;;;;;10.18;2.42;;;;;;;7.90;100.00;96928.84;6248756;22;20465;-79
2022/11/24 00:23:32;;;;;;;13.52;3.83;;;;;;;8.01;100.00;96933.22;6275701;22;20012;-80
2022/11/24 00:26:05;;;;;;;9.18;2.35;;;;;;;8.17;100.00;96934.34;6275971;22;20018;-80
2022/11/24 00:28:32;;;;;;;13.55;2.75;;;;;;;7.91;100.00;96946.88;6276183;22;20020;-80
2022/11/24 00:31:21;;;;;;;7.18;1.80;;;;;;;8.12;100.00;96945.50;5096095;27;20398;-81
2022/11/24 00:33:48;;;;;;;10.30;1.95;;;;;;;8.21;100.00;96937.28;5101163;28;20038;-81
2022/11/24 00:36:15;;;;;;;11.38;2.85;;;;;;;8.35;100.00;96941.22;5098800;28;20114;-81
2022/11/24 00:38:40;;;;;;;15.82;2.35;;;;;;;8.37;100.00;96936.56;5101001;28;20032;-81
2022/11/24 00:41:06;;;;;;;11.50;2.28;;;;;;;8.32;100.00;96925.22;5098945;28;20042;-81
2022/11/24 00:43:32;;;;;;;11.40;2.65;;;;;;;8.35;100.00;96930.78;5095909;28;20031;-81
2022/11/24 00:45:57;;;;;;;10.52;2.08;;;;;;;8.19;100.00;96934.09;5096002;28;20480;-81
2022/11/24 00:48:23;;;;;;;8.63;2.25;;;;;;;8.35;100.00;96936.00;5093243;28;20180;-81
2022/11/24 00:51:04;;;;;;;12.20;2.53;;;;;;;8.37;100.00;96943.63;5094179;28;20028;-80
2022/11/24 00:53:30;;;;;;;10.40;1.65;;;;;;;8.20;100.00;96965.25;5093432;28;20043;-81
2022/11/24 00:55:56;;;;;;;7.03;2.28;;;;;;;8.36;100.00;96955.13;5103254;28;20024;-81
2022/11/24 00:58:23;;;;;;;9.77;2.50;;;;;;;8.27;100.00;96954.69;5099273;28;20548;-80
2022/11/24 01:00:50;;;;;;;11.82;3.85;;;;;;;8.26;100.00;96948.63;5100787;28;20034;-81
2022/11/24 01:03:17;;;;;;;10.02;2.13;;;;;;;8.19;100.00;96947.97;5099222;28;20036;-80
2022/11/24 01:05:43;;;;;;;14.15;2.58;;;;;;;8.15;100.00;96950.25;5103261;28;20381;-81
2022/11/24 01:08:09;;;;;;;18.35;2.42;;;;;;;8.11;100.00;96958.78;5097861;28;20085;-82
2022/11/24 01:10:34;;;;;;;9.63;2.50;;;;;;;8.03;100.00;96959.91;5099022;28;20040;-81
2022/11/24 01:13:00;;;;;;;14.82;2.03;;;;;;;8.04;100.00;96969.34;5094821;28;20028;-80
2022/11/24 01:15:26;;;;;;;8.68;2.05;;;;;;;7.99;100.00;96979.69;5096962;28;20028;-81
2022/11/24 01:17:52;;;;;;;9.20;1.77;;;;;;;8.07;100.00;96987.19;5102099;28;20499;-79
2022/11/24 01:20:18;;;;;;;10.23;2.03;;;;;;;7.89;100.00;96979.50;5100398;28;20037;-79
2022/11/24 01:22:43;;;;;;;9.00;1.95;;;;;;;8.04;100.00;96986.84;5098765;28;20097;-79
2022/11/24 01:25:10;;;;;;;6.95;2.22;;;;;;;8.02;100.00;96994.91;5096102;28;20024;-80
2022/11/24 01:27:38;;;;;;;12.63;2.50;;;;;;;8.07;100.00;96992.44;5092903;28;20409;-79
2022/11/24 01:30:05;;;;;;;14.18;2.50;;;;;;;7.80;100.00;96994.72;5095478;28;20044;-80
2022/11/24 01:32:32;;;;;;;10.73;2.88;;;;;;;8.15;100.00;97014.78;5092655;28;20024;-79
2022/11/24 01:34:58;;;;;;;9.20;2.00;;;;;;;8.07;100.00;97000.28;5095598;28;20055;-79
2022/11/24 01:37:24;;;;;;;8.75;2.00;;;;;;;7.79;100.00;97003.56;5099544;28;20355;-78
2022/11/24 01:39:50;;;;;;;16.55;2.22;;;;;;;8.04;100.00;96997.31;5090138;28;20035;-79
2022/11/24 01:42:15;;;;;;;10.52;2.38;;;;;;;7.97;100.00;97013.09;5084149;28;20370;-79
2022/11/24 01:44:41;;;;;;;13.45;1.95;;;;;;;8.07;100.00;97029.00;5086302;28;20343;-79
2022/11/24 01:47:28;;;;;;;17.60;2.53;;;;;;;7.95;100.00;97030.81;5084663;28;20067;-78
2022/11/24 01:49:58;;;;;;;9.52;1.85;;;;;;;7.82;100.00;97016.94;5083750;28;20123;-79
2022/11/24 01:52:40;;;;;;;10.48;2.42;;;;;;;7.97;100.00;97028.78;5086116;28;20542;-78
2022/11/24 01:55:14;;;;;;;7.35;1.77;;;;;;;8.13;100.00;97025.47;5077292;28;20039;-78
2022/11/24 01:57:55;;;;;;;13.85;3.10;;;;;;;7.97;100.00;97045.25;5082812;28;20028;-79
2022/11/24 02:00:22;;;;;;;11.32;2.17;;;;;;;7.85;100.00;97053.06;5084035;28;20363;-78
2022/11/24 02:02:47;;;;;;;9.30;2.13;;;;;;;7.89;100.00;97055.25;5086130;28;20039;-78
2022/11/24 02:05:23;;;;;;;10.65;2.00;;;;;;;8.10;100.00;97065.13;5084082;28;20036;-79
2022/11/24 02:07:50;;;;;;;5.63;2.05;;;;;;;8.10;100.00;97059.09;5082044;28;20028;-79
2022/11/24 02:10:16;;;;;;;10.52;2.50;;;;;;;8.28;100.00;97058.97;5085182;28;20517;-78
2022/11/24 02:12:47;;;;;;;9.63;2.25;;;;;;;8.37;100.00;97061.25;5084636;28;20032;-79
2022/11/24 02:15:17;;;;;;;12.60;2.33;;;;;;;8.14;100.00;97076.72;5082309;28;20032;-79
2022/11/24 02:17:43;;;;;;;8.98;2.40;;;;;;;8.31;100.00;97076.03;5078408;28;20528;-79
2022/11/24 02:20:10;;;;;;;16.23;3.15;;;;;;;8.09;100.00;97084.44;5082082;28;20036;-79
2022/11/24 02:22:47;;;;;;;12.77;2.75;;;;;;;8.27;100.00;97082.75;5080677;28;20107;-79
2022/11/24 02:25:27;;;;;;;13.18;2.97;;;;;;;8.08;100.00;97080.25;5084464;28;20040;-79
2022/11/24 02:27:54;;;;;;;20.73;3.28;;;;;;;8.03;100.00;97079.31;5082064;28;20046;-80
2022/11/24 02:30:20;;;;;;;14.55;2.35;;;;;;;7.99;100.00;97081.59;5079862;28;20041;-78
2022/11/24 02:32:46;;;;;;;21.50;2.63;;;;;;;8.01;100.00;97090.00;5079988;28;20371;-78
2022/11/24 02:35:13;;;;;;;16.05;2.70;;;;;;;8.05;100.00;97082.50;5083049;28;20060;-79
2022/11/24 02:37:39;;;;;;;15.35;3.00;;;;;;;8.28;100.00;97082.50;5076282;28;20025;-78
2022/11/24 02:40:05;;;;;;;14.45;2.53;;;;;;;8.21;100.00;97094.91;5078131;28;20050;-79
2022/11/24 02:42:36;;;;;;;10.20;1.85;;;;;;;8.13;100.00;97082.97;5085775;28;20077;-79
2022/11/24 02:45:02;;;;;;;18.25;3.60;;;;;;;7.99;100.00;97099.88;5081670;28;20428;-79
2022/11/24 02:47:28;;;;;;;18.83;2.63;;;;;;;8.09;100.00;97105.34;5086513;28;20074;-79
2022/11/24 02:49:53;;;;;;;14.95;2.92;;;;;;;7.86;100.00;97106.91;5083475;28;20028;-79
2022/11/24 02:52:19;;;;;;;11.82;2.85;;;;;;;7.57;100.00;97111.16;5082836;28;20044;-78
2022/11/24 02:54:44;;;;;;;19.65;2.35;;;;;;;8.11;100.00;97119.00;5079672;28;20031;-78
2022/11/24 02:57:10;;;;;;;13.98;2.30;;;;;;;7.93;100.00;97121.69;5082513;28;20124;-79
2022/11/24 02:59:36;;;;;;;19.23;3.63;;;;;;;7.82;100.00;97131.88;5082328;28;20031;-78
2022/11/24 03:02:02;;;;;;;14.02;2.40;;;;;;;7.78;100.00;97128.13;5065956;28;20032;-78
2022/11/24 03:04:28;;;;;;;8.65;2.63;;;;;;;7.83;100.00;97138.69;5080055;28;20481;-78
2022/11/24 03:06:54;;;;;;;20.48;3.05;;;;;;;8.13;100.00;97137.84;5079309;28;20032;-80
2022/11/24 03:09:20;;;;;;;16.33;2.65;;;;;;;8.06;100.00;97142.38;5082490;28;20495;-79
2022/11/24 03:11:45;;;;;;;14.07;2.63;;;;;;;8.03;100.00;97140.19;5077798;28;20035;-79
2022/11/24 03:14:11;;;;;;;17.60;3.00;;;;;;;7.97;100.00;97148.94;5077753;28;20036;-79
2022/11/24 03:16:36;;;;;;;12.65;2.30;;;;;;;7.92;100.00;97151.44;5084762;28;20036;-79
2022/11/24 03:19:03;;;;;;;15.25;2.53;;;;;;;7.86;100.00;97132.22;5083682;28;20526;-78
2022/11/24 03:21:28;;;;;;;14.80;2.58;;;;;;;8.02;100.00;97141.22;5084856;28;20398;-78
2022/11/24 03:23:54;;;;;;;16.23;2.80;;;;;;;7.78;100.00;97156.84;5081689;28;20024;-79
2022/11/24 03:26:21;;;;;;;22.50;3.55;;;;;;;7.67;100.00;97150.56;5080613;28;20031;-79
2022/11/24 03:28:47;;;;;;;15.98;2.70;;;;;;;7.69;100.00;97155.59;5081089;28;20111;-80
2022/11/24 03:31:13;;;;;;;13.30;2.78;;;;;;;7.95;100.00;97164.06;5081484;28;20114;-79
2022/11/24 03:33:39;;;;;;;18.88;3.05;;;;;;;7.95;100.00;97175.28;5077259;28;20083;-79
2022/11/24 03:36:05;;;;;;;13.77;4.28;;;;;;;8.02;100.00;97169.97;5082019;28;20052;-78
2022/11/24 03:38:32;;;;;;;18.13;3.35;;;;;;;7.76;100.00;97171.94;5078472;28;20039;-79
2022/11/24 03:40:59;;;;;;;25.65;3.30;;;;;;;7.74;100.00;97176.59;5080851;28;20466;-78
2022/11/24 03:43:24;;;;;;;9.50;2.30;;;;;;;7.73;100.00;97175.00;5074220;28;20035;-78
2022/11/24 03:45:50;;;;;;;19.23;3.60;;;;;;;7.82;100.00;97178.09;5081741;28;20085;-78
2022/11/24 03:48:17;;;;;;;21.08;3.05;;;;;;;7.76;100.00;97186.81;5073882;28;20085;-78
2022/11/24 03:50:43;;;;;;;19.13;3.20;;;;;;;7.92;100.00;97178.34;5080728;28;20028;-80
2022/11/24 03:53:14;;;;;;;16.98;3.22;;;;;;;7.86;100.00;97179.25;5076557;28;20036;-78
2022/11/24 03:55:42;;;;;;;12.93;2.38;;;;;;;8.05;100.00;97193.03;5084085;28;20024;-79
2022/11/24 03:58:09;;;;;;;18.00;3.00;;;;;;;7.66;100.00;97189.94;5064797;28;20075;-79
2022/11/24 04:00:35;;;;;;;22.70;3.88;;;;;;;7.86;100.00;97189.69;5069851;28;20441;-79
2022/11/24 04:03:00;;;;;;;21.35;3.00;;;;;;;7.94;100.00;97180.75;5081317;28;20134;-79
2022/11/24 04:05:28;;;;;;;20.35;3.55;;;;;;;8.04;100.00;97195.88;5082182;28;20039;-80
2022/11/24 04:07:56;;;;;;;23.05;3.42;;;;;;;7.90;100.00;97203.13;5080359;28;20557;-78
2022/11/24 04:10:25;;;;;;;16.60;3.55;;;;;;;7.72;100.00;97202.94;5083546;28;20113;-79
2022/11/24 04:12:51;;;;;;;20.58;3.00;;;;;;;8.06;100.00;97210.31;5077322;28;20025;-79
2022/11/24 04:15:18;;;;;;;18.20;3.33;;;;;;;7.52;100.00;97211.03;5081922;28;20028;-79
2022/11/24 04:17:45;;;;;;;14.73;2.83;;;;;;;7.96;100.00;97225.72;5078395;28;20055;-78
2022/11/24 04:20:11;;;;;;;14.43;2.45;;;;;;;7.84;100.00;97215.25;5082633;28;20521;-79
2022/11/24 04:22:38;;;;;;;20.48;4.05;;;;;;;8.03;100.00;97226.44;5076059;28;20105;-79
2022/11/24 04:25:05;;;;;;;15.90;4.03;;;;;;;7.77;100.00;97227.59;5081340;28;20072;-79
2022/11/24 04:27:32;;;;;;;13.82;2.50;;;;;;;7.95;100.00;97245.03;5062530;28;20035;-79
2022/11/24 04:29:58;;;;;;;17.95;2.42;;;;;;;7.84;100.00;97238.75;5081883;28;20055;-80
2022/11/24 04:32:24;;;;;;;15.00;3.85;;;;;;;7.89;100.00;97225.03;5078247;28;20024;-79
2022/11/24 04:34:50;;;;;;;10.95;2.28;;;;;;;7.91;100.00;97229.00;5080757;28;20035;-79
2022/11/24 04:37:16;;;;;;;14.77;2.50;;;;;;;8.27;100.00;97239.59;5063368;28;20529;-79
2022/11/24 04:39:42;;;;;;;15.93;2.58;;;;;;;8.07;100.00;97251.13;5075471;28;20020;-79
2022/11/24 04:42:07;;;;;;;18.48;2.45;;;;;;;8.00;100.00;97248.59;5080775;28;20218;-79
2022/11/24 04:44:33;;;;;;;15.10;2.97;;;;;;;8.23;100.00;97256.72;5086744;28;20077;-80
2022/11/24 04:46:59;;;;;;;17.50;3.38;;;;;;;8.06;100.00;97259.16;5080042;28;20032;-80
2022/11/24 04:49:25;;;;;;;15.30;3.03;;;;;;;8.12;100.00;97269.53;5080027;28;20478;-80
2022/11/24 04:51:51;;;;;;;14.77;4.32;;;;;;;8.25;100.00;97262.50;5082811;28;20046;-79
2022/11/24 04:54:17;;;;;;;10.77;2.90;;;;;;;8.18;100.00;97280.91;5083018;28;20120;-79
2022/11/24 04:56:42;;;;;;;23.52;4.22;;;;;;;8.23;100.00;97281.03;5077800;28;20473;-79
2022/11/24 04:59:15;;;;;;;12.95;2.60;;;;;;;8.44;100.00;97286.78;5084223;28;20036;-78
2022/11/24 05:01:45;;;;;;;17.67;3.42;;;;;;;7.90;100.00;97284.09;5080574;28;20116;-79
2022/11/24 05:04:13;;;;;;;12.68;2.45;;;;;;;8.16;100.00;97290.81;5078872;28;20032;-79
2022/11/24 05:06:39;;;;;;;18.33;3.28;;;;;;;8.22;100.00;97278.63;5078122;28;20040;-80
2022/11/24 05:09:06;;;;;;;16.80;2.35;;;;;;;7.99;100.00;97303.66;5067164;28;20070;-79
2022/11/24 05:11:33;;;;;;;15.93;2.58;;;;;;;8.14;100.00;97291.00;5083592;28;20028;-79
2022/11/24 05:13:59;;;;;;;13.68;2.60;;;;;;;8.23;100.00;97293.31;5082606;28;20417;-79
2022/11/24 05:16:25;;;;;;;10.90;3.08;;;;;;;8.02;100.00;97298.00;5078697;28;20029;-79
2022/11/24 05:18:50;;;;;;;13.90;2.53;;;;;;;8.06;100.00;97293.94;5086499;28;20431;-79
2022/11/24 05:21:15;;;;;;;12.93;2.50;;;;;;;8.07;100.00;97295.53;5082968;28;20050;-79
2022/11/24 05:23:41;;;;;;;18.88;2.72;;;;;;;8.26;100.00;97290.25;5085986;28;20412;-78
2022/11/24 05:26:07;;;;;;;18.30;3.20;;;;;;;8.28;100.00;97312.53;5081084;28;20028;-79
2022/11/24 05:28:32;;;;;;;12.68;2.42;;;;;;;8.18;100.00;97306.25;5079710;28;20024;-79
2022/11/24 05:31:00;;;;;;;14.45;2.97;;;;;;;8.13;100.00;97299.88;5081778;28;20100;-79
2022/11/24 05:33:27;;;;;;;13.90;2.35;;;;;;;8.35;100.00;97307.22;5084061;28;20539;-79
2022/11/24 05:35:53;;;;;;;16.02;2.70;;;;;;;8.17;100.00;97308.06;5082987;28;20420;-79
2022/11/24 05:38:21;;;;;;;11.57;2.50;;;;;;;8.35;100.00;97312.44;5064001;28;20024;-80
2022/11/24 05:40:46;;;;;;;20.08;3.20;;;;;;;8.27;100.00;97315.38;5082774;28;20543;-80
2022/11/24 05:43:15;;;;;;;14.30;2.50;;;;;;;8.07;100.00;97310.41;5089316;28;20028;-79
2022/11/24 05:45:42;;;;;;;15.35;3.13;;;;;;;8.32;100.00;97318.13;5088051;28;20488;-79
2022/11/24 05:48:12;;;;;;;21.52;3.22;;;;;;;8.16;100.00;97309.09;5082397;28;20028;-79
2022/11/24 05:50:38;;;;;;;13.05;2.63;;;;;;;8.25;100.00;97317.41;5084805;28;20028;-80
2022/11/24 05:53:10;;;;;;;14.25;2.90;;;;;;;8.30;100.00;97309.72;5084596;28;20028;-80
2022/11/24 05:55:35;;;;;;;18.25;3.22;;;;;;;8.12;100.00;97321.00;5086071;28;20081;-79
2022/11/24 05:58:03;;;;;;;26.75;3.65;;;;;;;7.95;100.00;97318.97;5084528;28;20479;-79
2022/11/24 06:00:30;;;;;;;12.23;2.58;;;;;;;7.89;100.00;97322.47;5087766;28;20040;-80
2022/11/24 06:02:56;;;;;;;17.77;2.92;;;;;;;8.06;100.00;97314.84;5083213;28;20027;-80
2022/11/24 06:05:22;;;;;;;19.23;4.80;;;;;;;7.94;100.00;97324.44;5085344;28;21203;-79
2022/11/24 06:07:49;;;;;;;18.80;3.22;;;;;;;8.04;100.00;97321.31;5080186;28;20042;-79
2022/11/24 06:10:16;;;;;;;16.30;3.17;;;;;;;7.95;100.00;97318.19;5060673;28;20463;-78
2022/11/24 06:12:41;;;;;;;25.40;3.75;;;;;;;7.77;100.00;97327.63;5080385;28;20047;-79
2022/11/24 06:15:07;;;;;;;14.40;4.20;;;;;;;7.80;100.00;97332.41;5079835;28;20036;-78
2022/11/24 06:17:33;;;;;;;19.17;3.33;;;;;;;8.00;100.00;97340.03;5080742;28;20032;-79
2022/11/24 06:19:58;;;;;;;25.30;3.95;;;;;;;7.88;100.00;97338.38;5082044;28;20020;-79
2022/11/24 06:22:24;;;;;;;17.92;4.45;;;;;;;7.84;100.00;97336.19;5085168;28;20028;-78
2022/11/24 06:24:50;;;;;;;31.58;4.05;;;;;;;7.85;100.00;97345.63;5083260;28;20036;-79
2022/11/24 06:27:16;;;;;;;34.72;4.68;;;;;;;7.89;100.00;97337.38;5083119;28;20656;-79
2022/11/24 06:29:41;;;;;;;27.70;4.85;;;;;;;7.50;100.00;97343.59;5079086;28;20039;-79
2022/11/24 06:32:07;;;;;;;23.80;4.22;;;;;;;7.84;100.00;97357.09;5080507;28;20375;-79
2022/11/24 06:34:33;;;;;;;28.42;3.95;;;;;;;8.01;100.00;97351.28;5080879;28;20028;-79
2022/11/24 06:36:59;;;;;;;21.90;5.20;;;;;;;7.69;100.00;97343.63;5084069;28;20478;-79
2022/11/24 06:39:24;;;;;;;23.23;3.70;;;;;;;7.78;100.00;97349.34;5082112;28;20077;-79
2022/11/24 06:41:50;;;;;;;26.15;4.20;;;;;;;7.93;100.00;97341.13;5079666;28;20078;-79
2022/11/24 06:44:16;;;;;;;25.45;4.40;;;;;;;8.05;100.00;97354.25;5087734;28;20472;-80
2022/11/24 06:46:41;;;;;;;29.15;4.57;;;;;;;8.03;100.00;97351.84;5082470;28;20038;-79
2022/11/24 06:49:07;;;;;;;27.35;4.43;;;;;;;7.78;100.00;97357.97;5088105;28;20140;-79
2022/11/24 06:51:33;;;;;;;33.88;4.18;;;;;;;7.85;100.00;97366.50;5076845;28;20550;-79
2022/11/24 06:53:59;;;;;;;33.03;5.28;;;;;;;7.81;100.00;97362.75;5083504;28;20034;-79
2022/11/24 06:56:24;;;;;;;29.10;3.53;;;;;;;7.76;100.00;97372.25;5082899;28;20551;-78
2022/11/24 06:58:52;;;;;;;26.75;4.57;;;;;;;7.88;100.00;97370.50;5081717;28;20478;-79
2022/11/24 07:01:23;;;;;;;29.27;4.53;;;;;;;8.06;100.00;97371.53;5079315;28;20040;-79
2022/11/24 07:03:50;;;;;;;24.80;4.00;;;;;;;7.95;100.00;97376.47;5088415;28;20024;-80
2022/11/24 07:06:16;;;;;;;21.80;3.78;;;;;;;8.18;100.00;97390.69;5083430;28;20038;-80
2022/11/24 07:08:42;;;;;;;29.27;5.40;;;;;;;8.35;100.00;97390.88;5080955;28;20470;-79
2022/11/24 07:11:10;;;;;;;24.83;7.13;;;;;;;8.15;100.00;97401.56;5078219;28;20093;-79
2022/11/24 07:13:36;;;;;;;28.90;4.60;;;;;;;7.85;100.00;97421.38;5061354;28;20612;-79
2022/11/24 07:16:15;;;;;;;31.83;4.97;;;;;;;8.29;100.00;97420.53;5079260;28;20108;-79
2022/11/24 07:18:45;;;;;;;29.92;4.75;;;;;;;8.06;100.00;97423.78;5076847;28;20034;-80
2022/11/24 07:21:11;;;;;;;27.75;4.80;;;;;;;7.99;100.00;97421.25;5078651;28;20412;-80
2022/11/24 07:23:37;;;;;;;23.63;4.28;;;;;;;8.08;100.00;97421.75;5083676;28;20028;-81
2022/11/24 07:26:04;;;;;;;37.05;5.55;;;;;;;8.07;100.00;97435.84;5082565;28;20509;-80
2022/11/24 07:28:30;;;;;;;31.05;4.32;;;;;;;8.04;100.00;97425.81;5079624;28;20027;-80
2022/11/24 07:30:56;;;;;;;26.90;4.85;;;;;;;8.02;100.00;97428.66;5078027;28;20040;-79
2022/11/24 07:33:24;;;;;;;24.50;5.30;;;;;;;8.10;100.00;97438.00;5080301;28;20489;-79
2022/11/24 07:35:52;;;;;;;30.63;4.05;;;;;;;7.95;100.00;97438.38;5081850;28;20036;-79
2022/11/24 07:38:19;;;;;;;24.08;5.43;;;;;;;7.97;100.00;97436.34;5073679;28;20438;-79
2022/11/24 07:40:44;;;;;;;27.70;4.10;;;;;;;7.90;100.00;97440.84;5080627;28;20048;-78
2022/11/24 07:43:10;;;;;;;30.38;4.68;;;;;;;7.99;100.00;97444.75;5083922;28;20127;-77
2022/11/24 07:45:36;;;;;;;38.47;5.28;;;;;;;8.03;100.00;97451.13;5076887;28;20032;-77
2022/11/24 07:48:01;;;;;;;34.15;4.95;;;;;;;8.12;100.00;97455.09;5072959;28;20040;-79
2022/11/24 07:50:28;;;;;;;29.17;4.75;;;;;;;8.13;100.00;97456.69;5074109;28;20113;-78
2022/11/24 07:52:53;;;;;;;28.60;5.50;;;;;;;8.12;100.00;97459.50;5073672;28;20470;-78
2022/11/24 07:55:19;;;;;;;29.40;4.43;;;;;;;8.02;100.00;97469.66;5074944;28;20074;-78
2022/11/24 07:57:45;;;;;;;27.60;5.10;;;;;;;8.12;100.00;97468.16;5076590;28;20040;-79
2022/11/24 08:00:11;;;;;;;29.58;4.65;;;;;;;8.14;100.00;97467.91;5075228;28;20032;-78
2022/11/24 08:02:37;;;;;;;27.33;4.53;;;;;;;8.15;100.00;97459.88;5079669;28;20047;-78
2022/11/24 08:05:04;;;;;;;27.40;4.63;;;;;;;8.17;100.00;97461.47;5076865;28;20029;-79
2022/11/24 08:07:30;;;;;;;28.95;4.43;;;;;;;8.09;100.00;97460.75;5073695;28;20082;-78
2022/11/24 08:09:56;;;;;;;30.02;4.45;;;;;;;8.14;100.00;97466.13;5077572;28;20547;-78
2022/11/24 08:12:21;;;;;;;26.20;4.97;;;;;;;8.00;100.00;97467.25;5075537;28;20032;-78
2022/11/24 08:14:50;;;;;;;39.72;7.57;;;;;;;8.04;100.00;97463.19;5077391;28;20478;-79
2022/11/24 08:17:16;;;;;;;36.35;5.05;;;;;;;7.96;100.00;97455.66;5076368;28;20358;-79
2022/11/24 08:19:43;;;;;;;25.23;4.72;;;;;;;8.16;100.00;97460.69;5076987;28;20029;-79
2022/11/24 08:22:09;;;;;;;29.27;5.18;;;;;;;8.11;100.00;97465.75;5074963;28;20097;-78
2022/11/24 08:24:34;;;;;;;30.42;5.25;;;;;;;8.07;100.00;97462.78;5068865;28;20022;-79
2022/11/24 08:27:00;;;;;;;23.27;4.63;;;;;;;8.02;100.00;97454.00;5075189;28;20028;-79
2022/11/24 08:29:29;;;;;;;36.63;5.20;;;;;;;8.06;100.00;97457.75;5073913;28;20635;-79
2022/11/24 08:31:56;;;;;;;21.13;4.88;;;;;;;8.14;100.00;97455.66;5076035;28;20487;-78
2022/11/24 08:34:23;;;;;;;23.52;5.03;;;;;;;8.17;100.00;97464.06;5074415;28;20402;-78
2022/11/24 08:36:50;;;;;;;29.30;5.78;;;;;;;8.13;100.00;97472.34;5083448;28;20028;-78
2022/11/24 08:39:15;;;;;;;32.17;5.63;;;;;;;7.97;100.00;97467.69;5078339;28;20030;-78
2022/11/24 08:41:41;;;;;;;23.20;5.30;;;;;;;7.94;100.00;97463.69;5082225;28;20397;-78
2022/11/24 08:44:09;;;;;;;34.50;6.53;;;;;;;7.79;100.00;97464.03;5078021;28;20474;-78
2022/11/24 08:46:34;;;;;;;27.13;5.90;;;;;;;8.11;100.00;97461.31;5074134;28;20032;-78
2022/11/24 08:49:00;;;;;;;23.13;5.93;;;;;;;8.25;100.00;97461.16;5060219;28;20036;-78
2022/11/24 08:51:26;;;;;;;24.33;6.35;;;;;;;8.28;100.00;97458.13;5083518;28;20025;-79
2022/11/24 08:53:57;;;;;;;30.48;5.57;;;;;;;8.13;100.00;97467.13;5081097;28;20116;-79
2022/11/24 08:56:23;;;;;;;24.17;6.53;;;;;;;8.22;100.00;97466.84;5079009;28;20030;-79
2022/11/24 08:58:48;;;;;;;33.80;7.95;;;;;;;8.24;100.00;97478.69;5084630;28;20055;-78
2022/11/24 09:01:15;;;;;;;29.85;8.38;;;;;;;8.38;100.00;97471.47;5081666;28;20363;-78
2022/11/24 09:03:42;;;;;;;40.45;9.57;;;;;;;8.33;100.00;97478.38;5079795;28;20047;-79
2022/11/24 09:06:08;;;;;;;41.65;9.85;;;;;;;8.56;100.00;97481.16;5080869;28;20040;-78
2022/11/24 09:08:34;;;;;;;27.02;8.20;;;;;;;8.75;100.00;97488.19;5080679;28;20036;-78
2022/11/24 09:11:07;;;;;;;35.25;10.38;;;;;;;8.78;100.00;97490.34;5076087;28;20033;-78
2022/11/24 09:13:33;;;;;;;51.78;12.13;;;;;;;8.92;100.00;97494.41;5082779;28;20474;-78
2022/11/24 09:16:07;;;;;;;41.70;10.18;;;;;;;8.90;100.00;97485.16;5078861;28;20102;-78
2022/11/24 09:18:34;;;;;;;35.88;10.98;;;;;;;8.82;100.00;97478.41;5079408;28;20025;-78
2022/11/24 09:21:12;;;;;;;31.83;10.80;;;;;;;8.95;100.00;97474.84;5078306;28;20098;-80
2022/11/24 09:23:39;;;;;;;51.35;11.63;;;;;;;9.18;100.00;97468.09;5080503;28;20040;-78
2022/11/24 09:26:14;;;;;;;44.53;8.82;;;;;;;9.27;100.00;97443.97;5084606;28;20122;-79
2022/11/24 09:28:40;;;;;;;45.83;9.45;;;;;;;9.33;100.00;97434.41;5077892;28;20082;-78
2022/11/24 09:31:09;;;;;;;32.97;7.55;;;;;;;9.57;100.00;97439.69;5079167;28;20123;-78
2022/11/24 09:33:36;;;;;;;39.38;7.97;;;;;;;9.23;100.00;97442.81;5075654;28;20028;-78
2022/11/24 09:36:02;;;;;;;34.30;7.68;;;;;;;9.56;100.00;97444.09;5062341;28;20067;-79
2022/11/24 09:38:28;;;;;;;36.70;8.95;;;;;;;9.58;100.00;97425.56;5077284;28;20463;-78
2022/11/24 09:40:54;;;;;;;27.20;6.60;;;;;;;9.68;100.00;97443.31;5084338;28;20020;-79
2022/11/24 09:43:40;;;;;;;39.88;7.22;;;;;;;9.71;100.00;97437.63;5085769;28;20093;-78
2022/11/24 09:46:43;;;;;;;35.25;7.47;;;;;;;9.93;100.00;97432.59;5080314;28;20124;-79
2022/11/24 09:49:16;;;;;;;20.88;5.05;;;;;;;9.77;100.00;97441.94;5080329;28;20452;-78
2022/11/24 09:51:47;;;;;;;35.58;7.82;;;;;;;9.52;100.00;97442.97;5081654;28;20028;-78
2022/11/24 09:54:18;;;;;;;38.72;7.88;;;;;;;9.83;100.00;97430.56;5082705;28;20567;-78
2022/11/24 09:56:47;;;;;;;41.17;7.32;;;;;;;10.06;100.00;97431.56;5084658;28;20106;-76
2022/11/24 09:59:16;;;;;;;39.95;7.50;;;;;;;10.41;100.00;97420.19;5084569;28;20117;-78
2022/11/24 10:01:44;;;;;;;29.10;6.53;;;;;;;10.25;100.00;97431.41;5078699;28;20449;-79
2022/11/24 10:04:35;;;;;;;30.10;5.63;;;;;;;10.41;100.00;97414.94;5084203;28;20031;-78
2022/11/24 10:07:10;;;;;;;41.13;7.15;;;;;;;10.51;100.00;97424.03;5081533;28;20028;-79
2022/11/24 10:09:55;;;;;;;42.65;6.50;;;;;;;10.53;100.00;97412.31;5076313;28;20035;-78
2022/11/24 10:12:42;;;;;;;37.58;6.53;;;;;;;10.36;100.00;97422.69;5077785;28;20081;-79
2022/11/24 10:15:17;;;;;;;34.75;7.10;;;;;;;10.50;100.00;97409.34;5077155;28;20401;-78
2022/11/24 10:18:05;;;;;;;39.10;7.13;;;;;;;10.21;100.00;97419.75;5076809;28;20035;-78
2022/11/24 10:21:02;;;;;;;37.22;6.03;;;;;;;10.53;100.00;97404.44;5080686;28;20115;-77
2022/11/24 10:24:05;;;;;;;26.55;5.75;;;;;;;10.66;100.00;97411.22;5079526;28;20392;-79
2022/11/24 10:26:35;;;;;;;33.30;5.43;;;;;;;10.34;100.00;97403.78;5082876;28;20030;-79
2022/11/24 10:29:09;;;;;;;32.45;5.55;;;;;;;10.71;100.00;97394.78;5078926;28;20031;-79
2022/11/24 10:31:41;;;;;;;32.60;5.28;;;;;;;10.37;100.00;97413.78;5078783;28;20040;-79
2022/11/24 10:34:16;;;;;;;39.45;6.10;;;;;;;10.87;100.00;97406.31;5082083;28;20090;-78
2022/11/24 10:36:58;;;;;;;32.28;5.00;;;;;;;10.89;100.00;97401.63;5079812;28;20174;-78
2022/11/24 10:39:34;;;;;;;26.73;5.03;;;;;;;11.15;100.00;97386.28;5077843;28;20162;-81
2022/11/24 10:42:29;;;;;;;27.33;6.38;;;;;;;11.10;100.00;97379.16;5082747;28;20036;-78
2022/11/24 10:44:59;;;;;;;33.58;6.05;;;;;;;11.37;100.00;97388.19;5078994;28;20599;-79
2022/11/24 10:47:26;;;;;;;30.75;5.97;;;;;;;10.83;100.00;97384.22;5063791;28;20501;-79
2022/11/24 10:50:02;;;;;;;33.45;5.47;;;;;;;11.06;100.00;97364.09;5078463;28;20094;-79
2022/11/24 10:52:30;;;;;;;28.63;6.13;;;;;;;11.46;100.00;97378.88;5081338;28;20510;-79
2022/11/24 10:55:01;;;;;;;30.30;6.65;;;;;;;11.65;100.00;97354.94;5075295;28;20031;-78
2022/11/24 10:57:30;;;;;;;32.00;6.15;;;;;;;11.52;100.00;97361.34;5081469;28;20051;-78
2022/11/24 10:59:56;;;;;;;33.33;5.32;;;;;;;11.50;100.00;97371.31;5079951;28;20032;-79
2022/11/24 11:02:27;;;;;;;34.03;5.93;;;;;;;11.57;100.00;97369.31;5066042;28;20036;-78
2022/11/24 11:04:56;;;;;;;31.17;5.10;;;;;;;11.62;100.00;97363.31;5078135;28;20024;-78
2022/11/24 11:07:25;;;;;;;30.27;5.28;;;;;;;11.66;100.00;97348.66;5077448;28;20040;-78
2022/11/24 11:10:21;;;;;;;32.47;5.53;;;;;;;11.99;100.00;97347.75;5063247;28;20092;-79
2022/11/24 11:12:47;;;;;;;36.47;6.75;;;;;;;11.98;100.00;97334.81;5081130;28;20549;-79
2022/11/24 11:15:29;;;;;;;29.98;4.80;;;;;;;12.36;100.00;97335.78;5080075;28;20089;-79
2022/11/24 11:17:59;;;;;;;26.48;5.43;;;;;;;12.58;100.00;97334.97;5076107;28;20073;-78
2022/11/24 11:20:32;;;;;;;31.45;6.28;;;;;;;12.39;100.00;97319.53;5074783;28;20104;-79
2022/11/24 11:23:12;;;;;;;36.45;7.20;;;;;;;12.37;100.00;97321.59;5075652;28;20027;-79
2022/11/24 11:25:39;;;;;;;28.85;6.68;;;;;;;12.31;100.00;97321.81;5083940;28;20055;-78
2022/11/24 11:28:20;;;;;;;29.63;6.70;;;;;;;12.55;100.00;97323.09;5081313;28;20032;-79
2022/11/24 11:31:00;;;;;;;27.50;6.55;;;;;;;12.57;100.00;97315.72;5078573;28;20052;-78